This is the latest recevied weather packets stored in our database for station/object DB3LD. If no packets are shown the sender has not sent any weather packets the latest 10 day(s).
| Time | Temp. | Humidity | Pressure | Rain* | Wind** | Luminosity | Snow |
|---|---|---|---|---|---|---|---|
| 1778416813 | 16.67° C | 61% | 1012.5 hPa | 0 mm | - | 338 W/m² | - |
| 1778408412 | 16.67° C | 60% | 1013.6 hPa | 0 mm | - | 309 W/m² | - |
| 1778407812 | 16.67° C | 58% | 1013.6 hPa | 0 mm | - | 365 W/m² | - |
| 1778406011 | 16.67° C | 61% | 1013.8 hPa | 0 mm | - | 385 W/m² | - |
| 1778401210 | 16.11° C | 64% | 1014.4 hPa | 0 mm | - | 331 W/m² | - |
| 1778395214 | 13.89° C | 74% | 1014.6 hPa | 0 mm | - | 190 W/m² | - |
| 1778392813 | 12.78° C | 75% | 1014.8 hPa | 0 mm | - | 121 W/m² | - |
| 1778383812 | 10° C | 82% | 1015.6 hPa | 0 mm | - | 0 W/m² | - |
| 1778382611 | 10.56° C | 82% | 1015.7 hPa | 0 mm | - | 0 W/m² | - |
| 1778381411 | 10.56° C | 81% | 1015.8 hPa | 0 mm | - | 0 W/m² | - |
| 1778380211 | 11.11° C | 80% | 1016 hPa | 0 mm | - | 0 W/m² | - |
| 1778376022 | 11.67° C | 78% | 1016.3 hPa | 0 mm | - | 0 W/m² | - |
| 1778374214 | 11.67° C | 77% | 1016.4 hPa | 0 mm | - | 0 W/m² | - |
| 1778370013 | 12.22° C | 76% | 1017.2 hPa | 0 mm | - | 0 W/m² | - |
| 1778369413 | 12.22° C | 75% | 1017.5 hPa | 0 mm | - | 0 W/m² | - |
| 1778352013 | 14.44° C | 66% | 1018.2 hPa | 0 mm | - | 13 W/m² | - |
| 1778343011 | 16.11° C | 52% | 1018.3 hPa | 0 mm | - | 69 W/m² | - |
| 1778338210 | 17.22° C | 50% | 1018.9 hPa | 0 mm | - | 203 W/m² | - |
| 1778336414 | 17.22° C | 51% | 1019.2 hPa | 0 mm | - | 619 W/m² | - |
| 1778335814 | 17.22° C | 51% | 1019.3 hPa | 0 mm | - | 671 W/m² | - |
| 1778325013 | 16.11° C | 51% | 1021.4 hPa | 0 mm | - | 795 W/m² | - |
| 1778307012 | 10° C | 75% | 1022.1 hPa | 0 mm | - | 283 W/m² | - |
| 1778296815 | 4.44° C | 80% | 1022.1 hPa | 0 mm | - | 0 W/m² | - |
| 1778292014 | 6.67° C | 76% | 1022 hPa | 0 mm | - | 0 W/m² | - |
| 1778291414 | 6.67° C | 76% | 1022.2 hPa | 0 mm | - | 0 W/m² | - |
* Rain latest hour (hover to see other rain measurements)
** Current wind speed in m/s (hover to see current wind gust speed)